Time;durP1;ratioP1;P1;durP2;ratioP2;P2;SDS_P1;SDS_P2;PMS_P1;PMS_P2;Temp;Humidity;BMP_temperature;BMP_pressure;BME280_temperature;BME280_humidity;BME280_pressure;Samples;Min_cycle;Max_cycle;Signal;HPM_P1;HPM_P2
2023/02/27 00:02:05;;;;;;;;;;;;;;;-2.61;98.55;96502.34;5000100;28;19917;-73
2023/02/27 00:04:31;;;;;;;;;;;;;;;-2.59;98.44;96508.22;5005011;28;19983;-74
2023/02/27 00:06:56;;;;;;;;;;;;;;;-2.68;99.39;96524.16;5008427;28;19918;-73
2023/02/27 00:09:21;;;;;;;;;;;;;;;-2.71;99.32;96512.09;5000821;28;21322;-73
2023/02/27 00:11:46;;;;;;;;;;;;;;;-2.64;99.33;96510.97;4987954;28;19924;-74
2023/02/27 00:14:12;;;;;;;;;;;;;;;-2.56;98.75;96513.81;4999827;28;19956;-73
2023/02/27 00:16:37;;;;;;;;;;;;;;;-2.64;99.77;96519.03;5005067;28;20771;-74
2023/02/27 00:19:03;;;;;;;;;;;;;;;-2.49;99.21;96532.22;5002956;28;19955;-72
2023/02/27 00:21:30;;;;;;;;;;;;;;;-2.64;99.93;96519.81;5003282;28;19921;-72
2023/02/27 00:23:55;;;;;;;;;;;;;;;-2.58;99.38;96517.88;5005961;28;20329;-73
2023/02/27 00:26:20;;;;;;;;;;;;;;;-2.58;99.05;96524.03;4982839;28;19921;-73
2023/02/27 00:28:46;;;;;;;;;;;;;;;-2.59;99.35;96527.81;5006100;28;19921;-73
2023/02/27 00:31:11;;;;;;;;;;;;;;;-2.50;98.93;96528.75;4999886;28;19968;-74
2023/02/27 00:33:36;;;;;;;;;;;;;;;-2.52;98.37;96512.16;5004287;28;19924;-73
2023/02/27 00:36:02;;;;;;;;;;;;;;;-2.48;98.15;96515.06;5004335;28;19918;-74
2023/02/27 00:38:28;;;;;;;;;;;;;;;-2.47;98.26;96510.50;5001635;28;20378;-74
2023/02/27 00:40:53;;;;;;;;;;;;;;;-2.37;97.56;96535.31;5006335;28;19991;-74
2023/02/27 00:43:18;;;;;;;;;;;;;;;-2.44;98.01;96518.78;5000825;28;20377;-74
2023/02/27 00:45:43;;;;;;;;;;;;;;;-2.50;98.07;96501.94;5008198;28;19926;-73
2023/02/27 00:48:09;;;;;;;;;;;;;;;-2.44;97.07;96504.56;5009297;28;19921;-72
2023/02/27 00:50:34;;;;;;;;;;;;;;;-2.36;97.28;96517.31;5000890;28;19925;-73
2023/02/27 00:53:00;;;;;;;;;;;;;;;-2.40;97.37;96517.09;5008033;28;19921;-72
2023/02/27 00:55:25;;;;;;;;;;;;;;;-2.39;96.90;96515.25;5000091;28;19947;-72
2023/02/27 00:57:50;;;;;;;;;;;;;;;-2.40;96.48;96514.41;5004476;28;19963;-73
2023/02/27 01:00:16;;;;;;;;;;;;;;;-2.35;95.90;96511.69;4999914;28;19968;-72
2023/02/27 01:02:41;;;;;;;;;;;;;;;-2.34;95.65;96507.09;5005898;28;19924;-73
2023/02/27 01:05:06;;;;;;;;;;;;;;;-2.39;95.85;96526.75;5001433;28;20029;-72
2023/02/27 01:07:32;;;;;;;;;;;;;;;-2.43;96.19;96508.81;5014114;28;19924;-74
2023/02/27 01:09:57;;;;;;;;;;;;;;;-2.44;96.23;96509.94;5024839;28;19917;-75
2023/02/27 01:12:23;;;;;;;;;;;;;;;-2.46;95.54;96491.44;5020466;28;19925;-75
2023/02/27 01:14:48;;;;;;;;;;;;;;;-2.44;95.78;96507.25;5025414;28;20432;-74
2023/02/27 01:17:14;;;;;;;;;;;;;;;-2.49;96.10;96500.06;5020628;28;19956;-73
2023/02/27 01:19:39;;;;;;;;;;;;;;;-2.52;96.30;96511.34;5044892;28;19921;-73
2023/02/27 01:22:04;;;;;;;;;;;;;;;-2.52;96.25;96484.53;5042543;28;19917;-74
2023/02/27 01:24:30;;;;;;;;;;;;;;;-2.52;96.51;96497.94;5030049;28;19936;-74
2023/02/27 01:26:55;;;;;;;;;;;;;;;-2.46;96.30;96502.16;5023865;28;19978;-73
2023/02/27 01:29:21;;;;;;;;;;;;;;;-2.46;95.81;96496.81;5015395;28;20383;-73
2023/02/27 01:31:47;;;;;;;;;;;;;;;-2.37;95.74;96496.97;5024504;28;19921;-73
2023/02/27 01:34:12;;;;;;;;;;;;;;;-2.51;96.38;96492.28;5019461;28;19985;-73
2023/02/27 01:36:38;;;;;;;;;;;;;;;-2.50;96.98;96485.06;5028739;28;19937;-75
2023/02/27 01:39:03;;;;;;;;;;;;;;;-2.49;96.68;96492.00;5022855;28;19944;-72
2023/02/27 01:41:30;;;;;;;;;;;;;;;-2.42;96.08;96487.09;5016779;28;20008;-74
2023/02/27 01:43:57;;;;;;;;;;;;;;;-2.55;97.59;96491.28;5005064;28;19917;-75
2023/02/27 01:46:23;;;;;;;;;;;;;;;-2.47;97.36;96481.78;4999374;28;19957;-73
2023/02/27 01:48:53;;;;;;;;;;;;;;;-2.57;98.25;96489.97;5004431;28;20084;-73
2023/02/27 01:51:20;;;;;;;;;;;;;;;-2.60;98.62;96483.28;4998263;28;19925;-74
2023/02/27 01:53:47;;;;;;;;;;;;;;;-2.61;98.52;96479.03;5003603;28;19928;-73
2023/02/27 01:56:23;;;;;;;;;;;;;;;-2.65;98.97;96475.31;4998563;28;19940;-73
2023/02/27 01:58:49;;;;;;;;;;;;;;;-2.58;97.90;96480.31;5003527;28;19996;-73
2023/02/27 02:01:15;;;;;;;;;;;;;;;-2.63;98.28;96478.53;4999376;28;19921;-74
2023/02/27 02:03:59;;;;;;;;;;;;;;;-2.76;99.81;96488.03;5001148;28;19922;-75
2023/02/27 02:06:26;;;;;;;;;;;;;;;-2.67;98.61;96468.66;4992119;28;20367;-74
2023/02/27 02:08:53;;;;;;;;;;;;;;;-2.65;98.92;96477.19;5006396;28;19917;-73
2023/02/27 02:11:19;;;;;;;;;;;;;;;-2.68;99.28;96478.56;4998122;28;19921;-74
2023/02/27 02:13:45;;;;;;;;;;;;;;;-2.63;99.07;96491.94;5001209;28;20051;-74
2023/02/27 02:16:13;;;;;;;;;;;;;;;-2.66;99.45;96489.03;4998585;28;20125;-74
2023/02/27 02:18:48;;;;;;;;;;;;;;;-2.65;98.96;96477.97;5001027;28;19917;-73
2023/02/27 02:21:22;;;;;;;;;;;;;;;-2.65;99.28;96488.72;4998749;28;19929;-73
2023/02/27 02:24:06;;;;;;;;;;;;;;;-2.61;97.81;96502.34;4985279;28;19940;-73
2023/02/27 02:26:31;;;;;;;;;;;;;;;-2.59;97.60;96476.03;5003176;28;19917;-73
2023/02/27 02:29:32;;;;;;;;;;;;;;;-2.55;96.87;96493.97;5002013;28;19968;-73
2023/02/27 02:31:57;;;;;;;;;;;;;;;-2.53;95.97;96494.47;4965006;28;19921;-71
2023/02/27 02:34:32;;;;;;;;;;;;;;;-2.56;96.10;96496.91;4989132;28;20356;-71
2023/02/27 02:37:00;;;;;;;;;;;;;;;-2.58;96.31;96480.31;5003017;28;19924;-74
2023/02/27 02:39:25;;;;;;;;;;;;;;;-2.56;95.91;96495.03;4997567;28;19991;-72
2023/02/27 02:41:57;;;;;;;;;;;;;;;-2.59;96.17;96498.31;5001696;28;19917;-72
2023/02/27 02:44:45;;;;;;;;;;;;;;;-2.44;93.99;96509.94;4998118;28;19926;-73
2023/02/27 02:47:16;;;;;;;;;;;;;;;-2.45;93.46;96490.34;4996866;28;19973;-73
2023/02/27 02:49:48;;;;;;;;;;;;;;;-2.38;92.78;96484.63;5003388;28;19993;-72
2023/02/27 02:52:13;;;;;;;;;;;;;;;-2.32;91.37;96478.13;5000842;28;20395;-73
2023/02/27 02:54:58;;;;;;;;;;;;;;;-2.30;91.58;96492.03;5005059;28;20048;-73
2023/02/27 02:57:29;;;;;;;;;;;;;;;-2.21;91.40;96494.88;4999519;28;20363;-72
2023/02/27 02:59:59;;;;;;;;;;;;;;;-2.26;91.66;96476.97;5002957;28;20405;-74
2023/02/27 03:02:27;;;;;;;;;;;;;;;-2.27;92.06;96494.13;5000362;28;20402;-73
2023/02/27 03:04:56;;;;;;;;;;;;;;;-2.31;91.95;96451.00;5006113;28;20309;-73
2023/02/27 03:07:31;;;;;;;;;;;;;;;-2.35;93.18;96513.56;5018451;28;20619;-72
2023/02/27 03:10:01;;;;;;;;;;;;;;;-2.38;93.11;96488.09;5006050;28;19979;-73
2023/02/27 03:12:28;;;;;;;;;;;;;;;-2.36;93.44;96507.41;5002019;28;19932;-72
2023/02/27 03:14:56;;;;;;;;;;;;;;;-2.35;92.82;96492.91;5003303;28;19925;-73
2023/02/27 03:17:26;;;;;;;;;;;;;;;-2.30;91.68;96449.13;4997131;28;20500;-71
2023/02/27 03:19:54;;;;;;;;;;;;;;;-2.38;92.79;96493.47;5004705;28;19931;-73
2023/02/27 03:22:25;;;;;;;;;;;;;;;-2.41;92.51;96488.69;4999261;28;19924;-71
2023/02/27 03:24:52;;;;;;;;;;;;;;;-2.42;92.96;96494.34;5001255;28;19917;-71
2023/02/27 03:27:18;;;;;;;;;;;;;;;-2.42;92.15;96488.97;4998966;28;20382;-73
2023/02/27 03:29:51;;;;;;;;;;;;;;;-2.44;92.35;96486.59;5007326;28;19918;-72
2023/02/27 03:32:35;;;;;;;;;;;;;;;-2.46;92.79;96496.00;5001315;28;20016;-72
2023/02/27 03:35:02;;;;;;;;;;;;;;;-2.49;93.25;96510.78;5010595;28;19921;-73
2023/02/27 03:37:42;;;;;;;;;;;;;;;-2.51;93.97;96502.22;4999880;28;19928;-72
2023/02/27 03:40:19;;;;;;;;;;;;;;;-2.49;93.50;96513.47;5004612;28;19929;-72
2023/02/27 03:42:46;;;;;;;;;;;;;;;-2.50;93.84;96510.00;5008284;28;20490;-73
2023/02/27 03:45:33;;;;;;;;;;;;;;;-2.49;93.87;96516.16;5017487;28;19917;-73
2023/02/27 03:47:59;;;;;;;;;;;;;;;-2.54;94.97;96508.16;5011294;28;19924;-72
2023/02/27 03:50:25;;;;;;;;;;;;;;;-2.55;95.16;96499.31;4997880;28;20498;-72
2023/02/27 03:52:50;;;;;;;;;;;;;;;-2.55;94.73;96499.31;5000761;28;20298;-73
2023/02/27 03:55:20;;;;;;;;;;;;;;;-2.52;94.16;96500.63;4997968;28;19925;-73
2023/02/27 03:57:46;;;;;;;;;;;;;;;-2.55;94.60;96493.16;5002216;28;19918;-73
2023/02/27 04:00:20;;;;;;;;;;;;;;;-2.56;94.42;96503.06;4996603;28;19984;-74
2023/02/27 04:02:46;;;;;;;;;;;;;;;-2.60;94.74;96509.31;5003028;28;19917;-73
2023/02/27 04:05:11;;;;;;;;;;;;;;;-2.54;93.43;96500.13;5000765;28;19994;-73
2023/02/27 04:07:55;;;;;;;;;;;;;;;-2.59;94.31;96524.31;5024633;28;19980;-73
2023/02/27 04:10:21;;;;;;;;;;;;;;;-2.61;94.64;96521.09;4976387;28;19918;-74
2023/02/27 04:12:57;;;;;;;;;;;;;;;-2.64;94.27;96505.63;4980778;28;20030;-75
2023/02/27 04:15:28;;;;;;;;;;;;;;;-2.69;94.81;96523.34;4978877;28;20452;-74
2023/02/27 04:17:58;;;;;;;;;;;;;;;-2.74;94.63;96523.41;4996126;28;19924;-75
2023/02/27 04:20:26;;;;;;;;;;;;;;;-2.78;95.10;96534.97;4997043;28;20400;-74
2023/02/27 04:22:56;;;;;;;;;;;;;;;-2.72;94.24;96534.66;5002267;28;19924;-75
2023/02/27 04:25:27;;;;;;;;;;;;;;;-2.61;91.71;96518.44;4996464;28;20425;-73
2023/02/27 04:27:55;;;;;;;;;;;;;;;-2.60;91.55;96533.44;5001684;28;19976;-74
2023/02/27 04:30:33;;;;;;;;;;;;;;;-2.58;90.52;96537.44;4998619;28;19921;-74
2023/02/27 04:33:01;;;;;;;;;;;;;;;-2.63;90.89;96534.81;5003631;28;19963;-74
2023/02/27 04:35:26;;;;;;;;;;;;;;;-2.54;89.65;96524.25;4998825;28;19924;-73
2023/02/27 04:38:02;;;;;;;;;;;;;;;-2.55;89.97;96533.41;5003916;28;19918;-74
2023/02/27 04:40:46;;;;;;;;;;;;;;;-2.66;91.28;96540.75;5001646;28;19929;-74
2023/02/27 04:43:13;;;;;;;;;;;;;;;-2.70;91.86;96527.13;5002142;28;19922;-74
2023/02/27 04:45:40;;;;;;;;;;;;;;;-2.68;91.89;96542.91;5005593;28;19924;-75
2023/02/27 04:48:22;;;;;;;;;;;;;;;-2.69;92.00;96542.09;5004372;28;19921;-75
2023/02/27 04:50:51;;;;;;;;;;;;;;;-2.56;90.55;96534.47;5005283;28;20023;-74
2023/02/27 04:53:35;;;;;;;;;;;;;;;-2.65;91.71;96552.25;5003310;28;19925;-75
2023/02/27 04:56:06;;;;;;;;;;;;;;;-2.73;92.52;96559.06;5007863;28;19917;-77
2023/02/27 04:58:37;;;;;;;;;;;;;;;-2.77;92.50;96561.50;5010903;28;19925;-75
2023/02/27 05:01:06;;;;;;;;;;;;;;;-2.75;92.28;96545.94;5008344;28;19941;-75
2023/02/27 05:03:34;;;;;;;;;;;;;;;-2.72;91.17;96561.47;5007545;28;20012;-74
2023/02/27 05:06:00;;;;;;;;;;;;;;;-2.63;89.78;96558.13;5010784;28;20347;-73
2023/02/27 05:08:34;;;;;;;;;;;;;;;-2.63;89.84;96550.09;4998585;28;20130;-76
2023/02/27 05:11:15;;;;;;;;;;;;;;;-2.67;90.33;96570.53;5004706;28;20463;-74
2023/02/27 05:13:44;;;;;;;;;;;;;;;-2.66;90.92;96553.38;5005098;28;19964;-76
2023/02/27 05:16:09;;;;;;;;;;;;;;;-2.68;91.64;96559.00;4999669;28;19918;-75
2023/02/27 05:18:35;;;;;;;;;;;;;;;-2.74;92.35;96555.59;5005360;28;19918;-73
2023/02/27 05:21:23;;;;;;;;;;;;;;;-2.79;93.37;96571.72;5002628;28;20345;-77
2023/02/27 05:23:48;;;;;;;;;;;;;;;-2.75;92.87;96564.69;5004419;28;19928;-74
2023/02/27 05:26:20;;;;;;;;;;;;;;;-2.76;92.57;96551.56;5001750;28;19921;-74
2023/02/27 05:29:04;;;;;;;;;;;;;;;-2.74;92.53;96554.78;5004441;28;19917;-75
2023/02/27 05:31:42;;;;;;;;;;;;;;;-2.78;92.75;96551.06;5004464;28;20282;-74
2023/02/27 05:34:12;;;;;;;;;;;;;;;-2.72;92.14;96523.09;5000146;28;20298;-75
2023/02/27 05:36:42;;;;;;;;;;;;;;;-2.72;91.86;96557.97;5021443;28;19956;-74
2023/02/27 05:39:09;;;;;;;;;;;;;;;-2.62;90.72;96540.97;5018498;28;20019;-75
2023/02/27 05:41:37;;;;;;;;;;;;;;;-2.66;90.95;96561.41;5021423;28;19929;-76
2023/02/27 05:44:02;;;;;;;;;;;;;;;-2.69;91.11;96562.75;5011326;28;20415;-68
2023/02/27 05:46:31;;;;;;;;;;;;;;;-2.67;90.49;96565.94;5005835;28;19917;-70
2023/02/27 05:49:00;;;;;;;;;;;;;;;-2.65;90.76;96565.69;5004400;28;20047;-72
2023/02/27 05:51:27;;;;;;;;;;;;;;;-2.65;90.99;96554.94;4999349;28;19917;-72
2023/02/27 05:53:56;;;;;;;;;;;;;;;-2.71;91.33;96560.34;5003322;28;19917;-70
2023/02/27 05:56:24;;;;;;;;;;;;;;;-2.70;91.34;96575.38;4997983;28;20370;-72
2023/02/27 05:58:52;;;;;;;;;;;;;;;-2.58;89.51;96550.84;5003769;28;19921;-71
2023/02/27 06:01:17;;;;;;;;;;;;;;;-2.52;89.00;96562.28;4999297;28;20029;-71
2023/02/27 06:03:43;;;;;;;;;;;;;;;-2.56;89.49;96553.22;5003884;28;19938;-71
2023/02/27 06:06:12;;;;;;;;;;;;;;;-2.50;88.98;96552.09;4998818;28;19957;-73
2023/02/27 06:08:37;;;;;;;;;;;;;;;-2.49;88.72;96556.38;5002310;28;19972;-72
2023/02/27 06:11:02;;;;;;;;;;;;;;;-2.53;89.84;96552.66;5000787;28;19926;-68
2023/02/27 06:13:28;;;;;;;;;;;;;;;-2.45;88.85;96573.47;4984870;28;19921;-71
2023/02/27 06:15:53;;;;;;;;;;;;;;;-2.47;88.52;96553.41;5004532;28;19921;-69
2023/02/27 06:18:19;;;;;;;;;;;;;;;-2.47;88.38;96538.09;5000884;28;20314;-70
2023/02/27 06:20:45;;;;;;;;;;;;;;;-2.44;88.31;96571.63;5003592;28;20024;-71
2023/02/27 06:23:11;;;;;;;;;;;;;;;-2.42;88.66;96556.81;4987806;28;19921;-70
2023/02/27 06:25:37;;;;;;;;;;;;;;;-2.41;88.54;96563.81;5010793;28;19917;-70
2023/02/27 06:28:03;;;;;;;;;;;;;;;-2.43;88.55;96574.03;5008939;28;20605;-69
2023/02/27 06:30:28;;;;;;;;;;;;;;;-2.40;88.19;96572.63;5002787;28;19917;-70
2023/02/27 06:32:53;;;;;;;;;;;;;;;-2.36;88.19;96574.47;5015242;28;20389;-70
2023/02/27 06:35:19;;;;;;;;;;;;;;;-2.35;89.17;96569.91;5019829;28;19944;-70
2023/02/27 06:37:44;;;;;;;;;;;;;;;-2.30;88.15;96580.56;5018527;28;19967;-70
2023/02/27 06:40:10;;;;;;;;;;;;;;;-2.27;87.17;96577.28;5019854;28;19957;-69
2023/02/27 06:42:36;;;;;;;;;;;;;;;-2.25;86.85;96580.53;5021453;28;20375;-75
2023/02/27 06:45:02;;;;;;;;;;;;;;;-2.21;87.30;96572.69;5018681;28;19910;-70
2023/02/27 06:47:27;;;;;;;;;;;;;;;-2.28;87.85;96573.03;5018317;28;19972;-73
2023/02/27 06:49:52;;;;;;;;;;;;;;;-2.22;87.56;96584.50;5010410;28;19940;-71
2023/02/27 06:52:17;;;;;;;;;;;;;;;-2.23;88.45;96582.88;5020607;28;19986;-72
2023/02/27 06:54:43;;;;;;;;;;;;;;;-2.18;86.67;96566.72;5036133;28;20394;-71
2023/02/27 06:57:08;;;;;;;;;;;;;;;-2.17;86.56;96579.88;5010204;28;20004;-71
2023/02/27 06:59:33;;;;;;;;;;;;;;;-2.14;86.41;96565.88;5015826;28;20237;-71
2023/02/27 07:01:59;;;;;;;;;;;;;;;-2.13;86.76;96586.25;5015268;28;19980;-71
2023/02/27 07:04:24;;;;;;;;;;;;;;;-2.09;86.24;96583.00;5010863;28;20087;-72
2023/02/27 07:06:50;;;;;;;;;;;;;;;-2.01;85.53;96583.16;5023226;28;20000;-71
2023/02/27 07:09:15;;;;;;;;;;;;;;;-2.07;86.24;96595.06;5026239;28;19917;-73
2023/02/27 07:11:40;;;;;;;;;;;;;;;-2.02;85.96;96599.56;5020027;28;19922;-71
2023/02/27 07:14:06;;;;;;;;;;;;;;;-2.04;87.25;96607.09;5013338;28;19918;-72
2023/02/27 07:16:31;;;;;;;;;;;;;;;-2.04;87.22;96597.16;5018552;28;20377;-71
2023/02/27 07:18:57;;;;;;;;;;;;;;;-2.05;86.46;96611.66;5014061;28;20420;-71
2023/02/27 07:21:23;;;;;;;;;;;;;;;-2.02;86.46;96605.72;5002141;28;19983;-71
2023/02/27 07:23:48;;;;;;;;;;;;;;;-1.87;85.53;96612.78;5007079;28;19925;-71
2023/02/27 07:26:13;;;;;;;;;;;;;;;-1.95;86.47;96608.84;5002132;28;19961;-70
2023/02/27 07:28:38;;;;;;;;;;;;;;;-1.85;87.16;96613.28;5004277;28;19922;-72
2023/02/27 07:31:04;;;;;;;;;;;;;;;-1.80;87.40;96618.59;5001069;28;19961;-69
2023/02/27 07:33:31;;;;;;;;;;;;;;;-1.91;87.59;96622.47;5001324;28;19925;-72
2023/02/27 07:35:56;;;;;;;;;;;;;;;-1.88;86.95;96605.81;5002026;28;19918;-74
2023/02/27 07:38:22;;;;;;;;;;;;;;;-1.82;87.68;96625.34;4999174;28;19925;-71
2023/02/27 07:40:48;;;;;;;;;;;;;;;-1.86;87.54;96622.44;5005326;28;19944;-70
2023/02/27 07:43:13;;;;;;;;;;;;;;;-1.80;87.00;96634.72;4999342;28;19936;-71
2023/02/27 07:45:38;;;;;;;;;;;;;;;-1.81;85.62;96630.41;5003157;28;19925;-70
2023/02/27 07:48:04;;;;;;;;;;;;;;;-1.82;86.65;96625.34;5004436;28;19921;-69
2023/02/27 07:50:29;;;;;;;;;;;;;;;-1.81;86.65;96640.38;5002030;28;19932;-71
2023/02/27 07:52:54;;;;;;;;;;;;;;;-1.84;86.43;96622.13;5005676;28;20000;-70
2023/02/27 07:55:20;;;;;;;;;;;;;;;-1.84;85.56;96633.66;4998176;28;19929;-70
2023/02/27 07:57:45;;;;;;;;;;;;;;;-1.70;85.81;96636.44;5002181;28;19921;-71
2023/02/27 08:00:11;;;;;;;;;;;;;;;-1.80;86.19;96641.94;4999156;28;19925;-71
2023/02/27 08:02:36;;;;;;;;;;;;;;;-1.84;86.38;96630.19;5002826;28;20008;-70
2023/02/27 08:05:02;;;;;;;;;;;;;;;-1.85;87.62;96640.16;5000212;28;20375;-69
2023/02/27 08:07:28;;;;;;;;;;;;;;;-1.85;87.17;96652.78;5008848;28;19921;-71
2023/02/27 08:09:53;;;;;;;;;;;;;;;-1.74;87.51;96648.88;5024730;28;19987;-71
2023/02/27 08:12:18;;;;;;;;;;;;;;;-1.71;87.76;96647.47;5021215;28;19917;-70
2023/02/27 08:14:44;;;;;;;;;;;;;;;-1.82;87.53;96647.63;5026089;28;19921;-72
2023/02/27 08:17:09;;;;;;;;;;;;;;;-1.86;87.40;96646.59;5022371;28;19924;-72
2023/02/27 08:19:34;;;;;;;;;;;;;;;-1.86;87.26;96627.78;5027135;28;19921;-71
2023/02/27 08:22:00;;;;;;;;;;;;;;;-1.85;87.92;96658.16;5025327;28;19992;-71
2023/02/27 08:24:25;;;;;;;;;;;;;;;-1.89;88.16;96654.41;5021140;28;19917;-70
2023/02/27 08:26:50;;;;;;;;;;;;;;;-1.86;88.61;96668.06;5025411;28;20262;-72
2023/02/27 08:29:16;;;;;;;;;;;;;;;-1.78;87.95;96648.66;5019878;28;20027;-70
2023/02/27 08:31:41;;;;;;;;;;;;;;;-1.86;88.48;96669.97;5027845;28;20016;-70
2023/02/27 08:34:06;;;;;;;;;;;;;;;-1.84;88.10;96665.09;5035359;28;20507;-70
2023/02/27 08:36:32;;;;;;;;;;;;;;;-1.79;87.75;96633.63;5027030;28;19956;-71
2023/02/27 08:38:57;;;;;;;;;;;;;;;-1.82;88.11;96668.28;5027593;28;19983;-72
2023/02/27 08:41:22;;;;;;;;;;;;;;;-1.62;87.40;96672.59;5035782;28;20356;-71
2023/02/27 08:43:48;;;;;;;;;;;;;;;-1.68;87.10;96652.28;5039835;28;19928;-72
2023/02/27 08:46:13;;;;;;;;;;;;;;;-1.69;87.70;96666.78;5029640;28;20310;-70
2023/02/27 08:48:41;;;;;;;;;;;;;;;-1.74;86.06;96655.03;5025940;28;19917;-70
2023/02/27 08:51:06;;;;;;;;;;;;;;;-1.62;87.48;96667.22;5002763;28;19924;-70
2023/02/27 08:53:32;;;;;;;;;;;;;;;-1.60;87.51;96673.94;5006965;28;19917;-71
2023/02/27 08:55:57;;;;;;;;;;;;;;;-1.41;86.18;96675.81;4993326;28;19921;-71
2023/02/27 08:58:22;;;;;;;;;;;;;;;-1.54;86.15;96672.75;5007018;28;19921;-70
2023/02/27 09:00:47;;;;;;;;;;;;;;;-1.71;86.43;96669.78;5030061;28;19932;-72
2023/02/27 09:03:13;;;;;;;;;;;;;;;-1.63;86.34;96671.03;5020210;28;19961;-71
2023/02/27 09:05:39;;;;;;;;;;;;;;;-1.68;86.05;96679.94;5005769;28;19933;-71
2023/02/27 09:08:04;;;;;;;;;;;;;;;-1.50;86.20;96689.09;5009239;28;19944;-70
2023/02/27 09:10:31;;;;;;;;;;;;;;;-1.71;85.97;96668.97;5004825;28;19928;-71
2023/02/27 09:12:56;;;;;;;;;;;;;;;-1.66;87.00;96676.97;5005265;28;19922;-71
2023/02/27 09:15:22;;;;;;;;;;;;;;;-1.61;87.40;96682.28;5001240;28;20367;-71
2023/02/27 09:17:47;;;;;;;;;;;;;;;-1.56;86.86;96688.38;5004887;28;19924;-74
2023/02/27 09:20:12;;;;;;;;;;;;;;;-1.53;86.39;96703.13;4983007;28;19921;-72
2023/02/27 09:22:38;;;;;;;;;;;;;;;-1.54;85.88;96691.56;5004755;28;20025;-71
2023/02/27 09:25:03;;;;;;;;;;;;;;;-1.55;85.60;96678.41;5004051;28;19968;-69
2023/02/27 09:27:29;;;;;;;;;;;;;;;-1.52;86.08;96680.53;5003886;28;20379;-71
2023/02/27 09:29:55;;;;;;;;;;;;;;;-1.49;86.04;96697.97;5004445;28;19928;-71
2023/02/27 09:32:22;;;;;;;;;;;;;;;-1.56;84.85;96709.88;4998701;28;19999;-72
2023/02/27 09:34:48;;;;;;;;;;;;;;;-1.50;84.57;96709.81;5005093;28;20525;-72
2023/02/27 09:37:14;;;;;;;;;;;;;;;-1.39;84.43;96714.78;4999908;28;19925;-72
2023/02/27 09:39:39;;;;;;;;;;;;;;;-1.31;84.79;96709.84;5004305;28;20422;-70
2023/02/27 09:42:18;;;;;;;;;;;;;;;-1.27;84.01;96725.06;5000574;28;19918;-71
2023/02/27 09:44:48;;;;;;;;;;;;;;;-1.31;84.61;96697.19;5005084;28;19956;-72
2023/02/27 09:47:13;;;;;;;;;;;;;;;-1.33;84.07;96717.38;5000167;28;19918;-71
2023/02/27 09:49:47;;;;;;;;;;;;;;;-1.22;83.97;96724.22;5005084;28;19925;-71
2023/02/27 09:52:13;;;;;;;;;;;;;;;-1.20;84.04;96724.72;5000337;28;19921;-72
2023/02/27 09:54:38;;;;;;;;;;;;;;;-1.24;83.61;96737.94;5004447;28;20313;-72
2023/02/27 09:57:05;;;;;;;;;;;;;;;-1.29;82.30;96703.06;5007813;28;19928;-69
2023/02/27 09:59:30;;;;;;;;;;;;;;;-1.28;81.97;96723.47;5011856;28;20567;-71
2023/02/27 10:02:00;;;;;;;;;;;;;;;-1.26;82.35;96713.25;5007081;28;19960;-72
2023/02/27 10:04:34;;;;;;;;;;;;;;;-1.32;81.54;96741.25;4998867;28;20067;-70
2023/02/27 10:07:13;;;;;;;;;;;;;;;-1.27;82.27;96745.78;5007915;28;19924;-71
2023/02/27 10:09:59;;;;;;;;;;;;;;;-1.21;81.87;96756.16;5017097;28;19933;-71
2023/02/27 10:12:33;;;;;;;;;;;;;;;-1.07;83.11;96752.78;5001747;28;19917;-73
2023/02/27 10:15:14;;;;;;;;;;;;;;;-1.20;81.13;96767.72;5007497;28;20448;-72
2023/02/27 10:17:43;;;;;;;;;;;;;;;-0.99;81.90;96739.47;5012885;28;19917;-73
2023/02/27 10:20:35;;;;;;;;;;;;;;;-0.97;82.25;96766.09;4990301;28;19989;-71
2023/02/27 10:23:03;;;;;;;;;;;;;;;-1.05;82.70;96777.47;5003830;28;19918;-71
2023/02/27 10:25:31;;;;;;;;;;;;;;;-0.97;82.91;96766.09;5002319;28;19932;-71
2023/02/27 10:27:59;;;;;;;;;;;;;;;-0.85;81.17;96787.13;5004615;28;19924;-72
2023/02/27 10:30:25;;;;;;;;;;;;;;;-0.96;81.54;96768.44;5000920;28;20970;-70
2023/02/27 10:33:13;;;;;;;;;;;;;;;-0.97;80.48;96774.94;5003602;28;19964;-71
2023/02/27 10:35:41;;;;;;;;;;;;;;;-1.08;81.41;96786.09;5004784;28;19921;-70
2023/02/27 10:38:11;;;;;;;;;;;;;;;-0.98;81.86;96794.84;4999779;28;20326;-71
2023/02/27 10:40:37;;;;;;;;;;;;;;;-1.10;80.58;96785.59;5004545;28;19921;-73
2023/02/27 10:43:03;;;;;;;;;;;;;;;-1.02;81.49;96787.66;5001679;28;19921;-69
2023/02/27 10:45:29;;;;;;;;;;;;;;;-0.97;80.50;96785.69;5002015;28;19924;-71
2023/02/27 10:47:55;;;;;;;;;;;;;;;-1.01;80.73;96794.63;5004698;28;19926;-71
2023/02/27 10:50:33;;;;;;;;;;;;;;;-0.71;80.82;96785.31;5001916;28;29441;-70
2023/02/27 10:53:00;;;;;;;;;;;;;;;-0.64;80.52;96803.78;5007606;28;19917;-72
2023/02/27 10:55:37;;;;;;;;;;;;;;;-0.92;79.15;96776.75;4997352;28;19976;-71
2023/02/27 10:58:03;;;;;;;;;;;;;;;-0.96;80.14;96768.44;5001974;28;19921;-69
2023/02/27 11:00:34;;;;;;;;;;;;;;;-0.89;80.35;96796.88;5001696;28;19921;-73
2023/02/27 11:02:59;;;;;;;;;;;;;;;-0.87;80.28;96792.00;5002665;28;20641;-73
2023/02/27 11:05:30;;;;;;;;;;;;;;;-0.77;80.69;96797.25;4998912;28;20436;-71
2023/02/27 11:08:09;;;;;;;;;;;;;;;-0.63;81.00;96802.69;5015419;28;20381;-70
2023/02/27 11:10:34;;;;;;;;;;;;;;;-0.87;79.58;96786.63;5021265;28;20366;-71
2023/02/27 11:13:04;;;;;;;;;;;;;;;-0.89;79.24;96791.50;5016474;28;19932;-72
2023/02/27 11:15:31;;;;;;;;;;;;;;;-0.83;79.65;96785.78;5001127;28;19918;-71
2023/02/27 11:18:15;;;;;;;;;;;;;;;-0.72;78.35;96793.69;5002377;28;20291;-70
2023/02/27 11:20:42;;;;;;;;;;;;;;;-1.00;78.21;96783.56;5003951;28;20322;-73
2023/02/27 11:23:10;;;;;;;;;;;;;;;-1.00;77.98;96799.69;5000705;28;19917;-72
2023/02/27 11:25:35;;;;;;;;;;;;;;;-0.91;77.57;96775.66;5007261;28;19917;-71
2023/02/27 11:28:12;;;;;;;;;;;;;;;-0.78;78.15;96792.97;5019525;28;20489;-73
2023/02/27 11:30:37;;;;;;;;;;;;;;;-0.89;77.84;96795.00;5005926;28;19921;-71
2023/02/27 11:33:03;;;;;;;;;;;;;;;-0.92;77.72;96786.69;5001573;28;19928;-70
2023/02/27 11:35:31;;;;;;;;;;;;;;;-0.82;77.39;96800.81;5000931;28;19976;-72
2023/02/27 11:37:58;;;;;;;;;;;;;;;-0.67;77.06;96805.16;5002152;28;19924;-72
2023/02/27 11:40:29;;;;;;;;;;;;;;;-0.63;76.67;96789.25;4998665;28;20459;-71
2023/02/27 11:42:55;;;;;;;;;;;;;;;-0.47;76.10;96811.34;5002490;28;20441;-72
2023/02/27 11:45:27;;;;;;;;;;;;;;;-0.43;75.60;96810.47;4981295;28;19917;-71
2023/02/27 11:47:54;;;;;;;;;;;;;;;-0.58;74.92;96794.53;5005535;28;19972;-71
2023/02/27 11:50:20;;;;;;;;;;;;;;;-0.59;76.38;96809.91;4983220;28;19937;-71
2023/02/27 11:52:51;;;;;;;;;;;;;;;-0.69;76.38;96798.50;5005771;28;20295;-71
2023/02/27 11:55:19;;;;;;;;;;;;;;;-0.47;76.67;96797.88;5002058;28;20008;-71
2023/02/27 11:57:47;;;;;;;;;;;;;;;-0.50;77.43;96803.88;5005024;28;19940;-73
2023/02/27 12:00:19;;;;;;;;;;;;;;;-0.52;79.17;96809.53;5002045;28;20390;-71
2023/02/27 12:02:55;;;;;;;;;;;;;;;-0.60;78.42;96802.91;5009901;28;19921;-70
2023/02/27 12:05:25;;;;;;;;;;;;;;;-0.32;79.83;96813.81;5002748;28;19921;-70
2023/02/27 12:07:56;;;;;;;;;;;;;;;-0.41;79.27;96802.91;5028909;28;19917;-72
2023/02/27 12:10:27;;;;;;;;;;;;;;;-0.49;78.94;96805.44;5029789;28;20718;-71
2023/02/27 12:12:55;;;;;;;;;;;;;;;-0.55;76.37;96795.88;5022693;28;19921;-71
2023/02/27 12:15:21;;;;;;;;;;;;;;;-0.42;77.61;96809.38;5002436;28;19918;-72
2023/02/27 12:17:49;;;;;;;;;;;;;;;-0.48;74.64;96813.25;5011176;28;19932;-71
2023/02/27 12:20:21;;;;;;;;;;;;;;;-0.51;75.91;96816.50;5003535;28;20023;-71
2023/02/27 12:22:48;;;;;;;;;;;;;;;-0.32;78.68;96821.09;5006137;28;19918;-71
2023/02/27 12:25:13;;;;;;;;;;;;;;;-0.50;76.78;96803.88;5004003;28;19917;-72
2023/02/27 12:27:53;;;;;;;;;;;;;;;-0.44;79.67;96818.84;5006001;28;19927;-70
2023/02/27 12:30:21;;;;;;;;;;;;;;;-0.61;81.08;96808.59;4998641;28;19943;-72
2023/02/27 12:32:50;;;;;;;;;;;;;;;-0.60;81.13;96796.72;5005568;28;19917;-71
2023/02/27 12:35:22;;;;;;;;;;;;;;;-0.71;80.53;96808.75;5001106;28;19917;-72
2023/02/27 12:37:47;;;;;;;;;;;;;;;-0.49;79.75;96800.88;5004501;28;19918;-72
2023/02/27 12:40:15;;;;;;;;;;;;;;;-0.59;79.57;96801.81;5001915;28;19928;-72
2023/02/27 12:42:51;;;;;;;;;;;;;;;-0.56;78.40;96794.25;5005539;28;20015;-71
2023/02/27 12:45:25;;;;;;;;;;;;;;;-0.69;79.69;96812.72;5000863;28;20290;-72
2023/02/27 12:47:59;;;;;;;;;;;;;;;-0.48;86.72;96818.63;5005972;28;20280;-70
2023/02/27 12:50:28;;;;;;;;;;;;;;;-1.13;91.13;96796.91;5001672;28;20377;-72
2023/02/27 12:53:12;;;;;;;;;;;;;;;-1.13;94.94;96819.25;5007484;28;20329;-70
2023/02/27 12:55:50;;;;;;;;;;;;;;;-1.20;97.21;96822.28;5003190;28;19917;-71